sensor_id;sensor_type;location;lat;lon;timestamp;P1;durP1;ratioP1;P2;durP2;ratioP2
79438;SDS011;68889;48.232;10.110;2023-07-09T00:01:47;5.75;;;3.53;;
79438;SDS011;68889;48.232;10.110;2023-07-09T00:04:13;6.35;;;3.63;;
79438;SDS011;68889;48.232;10.110;2023-07-09T00:06:39;5.68;;;3.90;;
79438;SDS011;68889;48.232;10.110;2023-07-09T00:09:06;5.55;;;3.72;;
79438;SDS011;68889;48.232;10.110;2023-07-09T00:11:42;6.35;;;4.32;;
79438;SDS011;68889;48.232;10.110;2023-07-09T00:14:15;6.22;;;3.78;;
79438;SDS011;68889;48.232;10.110;2023-07-09T00:16:42;6.20;;;4.88;;
79438;SDS011;68889;48.232;10.110;2023-07-09T00:19:13;5.93;;;4.63;;
79438;SDS011;68889;48.232;10.110;2023-07-09T00:21:41;8.27;;;5.40;;
79438;SDS011;68889;48.232;10.110;2023-07-09T00:24:07;8.82;;;6.05;;
79438;SDS011;68889;48.232;10.110;2023-07-09T00:26:35;8.93;;;5.10;;
79438;SDS011;68889;48.232;10.110;2023-07-09T00:29:03;7.90;;;5.45;;
79438;SDS011;68889;48.232;10.110;2023-07-09T00:31:29;10.07;;;5.80;;
79438;SDS011;68889;48.232;10.110;2023-07-09T00:33:54;8.65;;;5.03;;
79438;SDS011;68889;48.232;10.110;2023-07-09T00:36:28;7.45;;;5.00;;
79438;SDS011;68889;48.232;10.110;2023-07-09T00:38:56;8.38;;;4.85;;
79438;SDS011;68889;48.232;10.110;2023-07-09T00:41:27;6.80;;;5.03;;
79438;SDS011;68889;48.232;10.110;2023-07-09T00:43:54;6.78;;;5.22;;
79438;SDS011;68889;48.232;10.110;2023-07-09T00:48:45;5.88;;;4.45;;
79438;SDS011;68889;48.232;10.110;2023-07-09T00:51:14;6.13;;;4.40;;
79438;SDS011;68889;48.232;10.110;2023-07-09T00:53:43;6.88;;;4.90;;
79438;SDS011;68889;48.232;10.110;2023-07-09T00:56:14;7.10;;;5.13;;
79438;SDS011;68889;48.232;10.110;2023-07-09T00:58:45;6.72;;;4.88;;
79438;SDS011;68889;48.232;10.110;2023-07-09T01:01:15;7.15;;;4.88;;
79438;SDS011;68889;48.232;10.110;2023-07-09T01:03:47;6.22;;;4.82;;
79438;SDS011;68889;48.232;10.110;2023-07-09T01:06:18;7.32;;;4.35;;
79438;SDS011;68889;48.232;10.110;2023-07-09T01:08:50;8.40;;;4.72;;
79438;SDS011;68889;48.232;10.110;2023-07-09T01:11:18;7.47;;;5.25;;
79438;SDS011;68889;48.232;10.110;2023-07-09T01:13:54;7.25;;;4.95;;
79438;SDS011;68889;48.232;10.110;2023-07-09T01:16:25;5.72;;;4.70;;
79438;SDS011;68889;48.232;10.110;2023-07-09T01:18:53;7.60;;;5.20;;
79438;SDS011;68889;48.232;10.110;2023-07-09T01:21:18;7.00;;;5.10;;
79438;SDS011;68889;48.232;10.110;2023-07-09T01:23:45;7.13;;;5.25;;
79438;SDS011;68889;48.232;10.110;2023-07-09T01:26:20;7.70;;;5.40;;
79438;SDS011;68889;48.232;10.110;2023-07-09T01:28:51;7.70;;;5.28;;
79438;SDS011;68889;48.232;10.110;2023-07-09T01:31:18;9.07;;;5.95;;
79438;SDS011;68889;48.232;10.110;2023-07-09T01:33:45;7.63;;;4.82;;
79438;SDS011;68889;48.232;10.110;2023-07-09T01:36:12;7.85;;;5.10;;
79438;SDS011;68889;48.232;10.110;2023-07-09T01:38:40;6.03;;;4.70;;
79438;SDS011;68889;48.232;10.110;2023-07-09T01:41:07;5.35;;;4.30;;
79438;SDS011;68889;48.232;10.110;2023-07-09T01:43:36;7.50;;;4.75;;
79438;SDS011;68889;48.232;10.110;2023-07-09T01:46:01;6.50;;;4.63;;
79438;SDS011;68889;48.232;10.110;2023-07-09T01:48:27;6.40;;;4.63;;
79438;SDS011;68889;48.232;10.110;2023-07-09T01:50:53;6.82;;;5.03;;
79438;SDS011;68889;48.232;10.110;2023-07-09T01:55:48;7.60;;;5.47;;
79438;SDS011;68889;48.232;10.110;2023-07-09T01:58:15;10.00;;;5.88;;
79438;SDS011;68889;48.232;10.110;2023-07-09T02:00:41;8.85;;;5.55;;
79438;SDS011;68889;48.232;10.110;2023-07-09T02:03:07;8.52;;;6.13;;
79438;SDS011;68889;48.232;10.110;2023-07-09T02:05:34;8.50;;;5.65;;
79438;SDS011;68889;48.232;10.110;2023-07-09T02:08:00;8.23;;;6.25;;
79438;SDS011;68889;48.232;10.110;2023-07-09T02:10:26;8.13;;;5.80;;
79438;SDS011;68889;48.232;10.110;2023-07-09T02:12:52;7.60;;;5.80;;
79438;SDS011;68889;48.232;10.110;2023-07-09T02:15:18;7.88;;;5.95;;
79438;SDS011;68889;48.232;10.110;2023-07-09T02:17:43;9.82;;;5.13;;
79438;SDS011;68889;48.232;10.110;2023-07-09T02:20:10;7.07;;;4.75;;
79438;SDS011;68889;48.232;10.110;2023-07-09T02:22:36;6.07;;;4.72;;
79438;SDS011;68889;48.232;10.110;2023-07-09T02:25:03;7.35;;;5.32;;
79438;SDS011;68889;48.232;10.110;2023-07-09T02:27:30;7.18;;;5.72;;
79438;SDS011;68889;48.232;10.110;2023-07-09T02:29:56;7.30;;;5.40;;
79438;SDS011;68889;48.232;10.110;2023-07-09T02:32:22;8.82;;;5.20;;
79438;SDS011;68889;48.232;10.110;2023-07-09T02:34:53;9.75;;;5.75;;
79438;SDS011;68889;48.232;10.110;2023-07-09T02:37:20;9.88;;;5.93;;
79438;SDS011;68889;48.232;10.110;2023-07-09T02:39:47;7.45;;;5.97;;
79438;SDS011;68889;48.232;10.110;2023-07-09T02:42:13;9.60;;;6.35;;
79438;SDS011;68889;48.232;10.110;2023-07-09T02:44:40;8.20;;;5.70;;
79438;SDS011;68889;48.232;10.110;2023-07-09T02:47:07;8.73;;;5.65;;
79438;SDS011;68889;48.232;10.110;2023-07-09T02:49:33;7.32;;;5.47;;
79438;SDS011;68889;48.232;10.110;2023-07-09T02:51:59;8.50;;;5.45;;
79438;SDS011;68889;48.232;10.110;2023-07-09T02:54:24;7.63;;;5.80;;
79438;SDS011;68889;48.232;10.110;2023-07-09T02:56:50;7.75;;;5.75;;
79438;SDS011;68889;48.232;10.110;2023-07-09T02:59:16;7.43;;;5.93;;
79438;SDS011;68889;48.232;10.110;2023-07-09T03:01:41;7.80;;;6.03;;
79438;SDS011;68889;48.232;10.110;2023-07-09T03:04:08;8.90;;;5.95;;
79438;SDS011;68889;48.232;10.110;2023-07-09T03:06:35;7.50;;;5.72;;
79438;SDS011;68889;48.232;10.110;2023-07-09T03:09:02;11.45;;;6.10;;
79438;SDS011;68889;48.232;10.110;2023-07-09T03:11:29;10.25;;;5.72;;
79438;SDS011;68889;48.232;10.110;2023-07-09T03:13:56;10.18;;;6.50;;
79438;SDS011;68889;48.232;10.110;2023-07-09T03:16:23;7.90;;;5.47;;
79438;SDS011;68889;48.232;10.110;2023-07-09T03:18:51;7.82;;;5.55;;
79438;SDS011;68889;48.232;10.110;2023-07-09T03:21:17;6.82;;;5.30;;
79438;SDS011;68889;48.232;10.110;2023-07-09T03:23:43;8.88;;;4.82;;
79438;SDS011;68889;48.232;10.110;2023-07-09T03:26:08;7.13;;;4.55;;
79438;SDS011;68889;48.232;10.110;2023-07-09T03:28:34;7.20;;;5.13;;
79438;SDS011;68889;48.232;10.110;2023-07-09T03:30:59;6.07;;;4.80;;
79438;SDS011;68889;48.232;10.110;2023-07-09T03:33:25;6.70;;;4.82;;
79438;SDS011;68889;48.232;10.110;2023-07-09T03:35:51;7.93;;;4.70;;
79438;SDS011;68889;48.232;10.110;2023-07-09T03:38:17;6.53;;;4.60;;
79438;SDS011;68889;48.232;10.110;2023-07-09T03:40:43;7.68;;;5.35;;
79438;SDS011;68889;48.232;10.110;2023-07-09T03:43:09;7.57;;;5.80;;
79438;SDS011;68889;48.232;10.110;2023-07-09T03:45:36;7.38;;;5.38;;
79438;SDS011;68889;48.232;10.110;2023-07-09T03:48:02;7.40;;;4.78;;
79438;SDS011;68889;48.232;10.110;2023-07-09T03:50:29;7.10;;;4.82;;
79438;SDS011;68889;48.232;10.110;2023-07-09T03:52:54;7.20;;;5.15;;
79438;SDS011;68889;48.232;10.110;2023-07-09T03:55:20;8.48;;;5.72;;
79438;SDS011;68889;48.232;10.110;2023-07-09T03:57:46;9.00;;;6.30;;
79438;SDS011;68889;48.232;10.110;2023-07-09T04:00:12;8.98;;;5.68;;
79438;SDS011;68889;48.232;10.110;2023-07-09T04:02:39;6.30;;;5.03;;
79438;SDS011;68889;48.232;10.110;2023-07-09T04:07:34;8.60;;;5.72;;
79438;SDS011;68889;48.232;10.110;2023-07-09T04:10:00;11.20;;;5.72;;
79438;SDS011;68889;48.232;10.110;2023-07-09T04:12:25;8.45;;;6.05;;
79438;SDS011;68889;48.232;10.110;2023-07-09T04:14:51;7.97;;;5.93;;
79438;SDS011;68889;48.232;10.110;2023-07-09T04:17:16;8.38;;;6.13;;
79438;SDS011;68889;48.232;10.110;2023-07-09T04:19:42;9.48;;;5.80;;
79438;SDS011;68889;48.232;10.110;2023-07-09T04:22:08;8.02;;;6.25;;
79438;SDS011;68889;48.232;10.110;2023-07-09T04:24:35;8.70;;;6.60;;
79438;SDS011;68889;48.232;10.110;2023-07-09T04:27:01;8.88;;;5.55;;
79438;SDS011;68889;48.232;10.110;2023-07-09T04:29:28;7.25;;;5.13;;
79438;SDS011;68889;48.232;10.110;2023-07-09T04:31:54;8.65;;;6.13;;
79438;SDS011;68889;48.232;10.110;2023-07-09T04:34:20;7.95;;;4.80;;
79438;SDS011;68889;48.232;10.110;2023-07-09T04:36:46;8.07;;;4.95;;
79438;SDS011;68889;48.232;10.110;2023-07-09T04:39:11;8.80;;;5.22;;
79438;SDS011;68889;48.232;10.110;2023-07-09T04:41:37;7.38;;;5.25;;
79438;SDS011;68889;48.232;10.110;2023-07-09T04:44:02;8.52;;;6.07;;
79438;SDS011;68889;48.232;10.110;2023-07-09T04:46:28;8.45;;;5.47;;
79438;SDS011;68889;48.232;10.110;2023-07-09T04:48:54;7.28;;;5.43;;
79438;SDS011;68889;48.232;10.110;2023-07-09T04:51:20;7.43;;;5.57;;
79438;SDS011;68889;48.232;10.110;2023-07-09T04:53:46;8.23;;;5.82;;
79438;SDS011;68889;48.232;10.110;2023-07-09T04:56:12;7.60;;;5.30;;
79438;SDS011;68889;48.232;10.110;2023-07-09T04:58:37;7.88;;;5.30;;
79438;SDS011;68889;48.232;10.110;2023-07-09T05:01:03;8.80;;;5.70;;
79438;SDS011;68889;48.232;10.110;2023-07-09T05:03:29;9.35;;;6.28;;
79438;SDS011;68889;48.232;10.110;2023-07-09T05:05:55;7.68;;;5.50;;
79438;SDS011;68889;48.232;10.110;2023-07-09T05:08:21;8.57;;;5.13;;
79438;SDS011;68889;48.232;10.110;2023-07-09T05:10:49;7.43;;;5.40;;
79438;SDS011;68889;48.232;10.110;2023-07-09T05:13:16;8.45;;;5.88;;
79438;SDS011;68889;48.232;10.110;2023-07-09T05:15:43;7.25;;;5.50;;
79438;SDS011;68889;48.232;10.110;2023-07-09T05:18:10;9.65;;;5.50;;
79438;SDS011;68889;48.232;10.110;2023-07-09T05:20:37;8.43;;;6.00;;
79438;SDS011;68889;48.232;10.110;2023-07-09T05:23:03;8.63;;;5.25;;
79438;SDS011;68889;48.232;10.110;2023-07-09T05:25:29;7.45;;;5.72;;
79438;SDS011;68889;48.232;10.110;2023-07-09T05:27:54;7.10;;;5.32;;
79438;SDS011;68889;48.232;10.110;2023-07-09T05:30:20;6.75;;;4.75;;
79438;SDS011;68889;48.232;10.110;2023-07-09T05:32:46;9.90;;;4.80;;
79438;SDS011;68889;48.232;10.110;2023-07-09T05:35:12;6.40;;;4.45;;
79438;SDS011;68889;48.232;10.110;2023-07-09T05:37:38;7.15;;;4.72;;
79438;SDS011;68889;48.232;10.110;2023-07-09T05:40:05;7.72;;;5.10;;
79438;SDS011;68889;48.232;10.110;2023-07-09T05:42:32;6.45;;;4.78;;
79438;SDS011;68889;48.232;10.110;2023-07-09T05:44:58;6.45;;;4.82;;
79438;SDS011;68889;48.232;10.110;2023-07-09T05:49:49;5.97;;;3.90;;
79438;SDS011;68889;48.232;10.110;2023-07-09T05:52:16;7.47;;;4.05;;
79438;SDS011;68889;48.232;10.110;2023-07-09T05:54:43;6.55;;;4.55;;
79438;SDS011;68889;48.232;10.110;2023-07-09T05:57:08;6.85;;;4.65;;
79438;SDS011;68889;48.232;10.110;2023-07-09T05:59:35;4.90;;;4.00;;
79438;SDS011;68889;48.232;10.110;2023-07-09T06:02:00;7.28;;;4.40;;
79438;SDS011;68889;48.232;10.110;2023-07-09T06:04:26;5.97;;;4.88;;
79438;SDS011;68889;48.232;10.110;2023-07-09T06:06:52;8.50;;;5.25;;
79438;SDS011;68889;48.232;10.110;2023-07-09T06:09:18;6.95;;;5.00;;
79438;SDS011;68889;48.232;10.110;2023-07-09T06:11:44;6.00;;;4.38;;
79438;SDS011;68889;48.232;10.110;2023-07-09T06:14:09;6.80;;;4.57;;
79438;SDS011;68889;48.232;10.110;2023-07-09T06:16:35;9.15;;;5.25;;
79438;SDS011;68889;48.232;10.110;2023-07-09T06:19:02;7.25;;;5.15;;
79438;SDS011;68889;48.232;10.110;2023-07-09T06:21:28;7.00;;;4.93;;
79438;SDS011;68889;48.232;10.110;2023-07-09T06:23:54;6.80;;;5.00;;
79438;SDS011;68889;48.232;10.110;2023-07-09T06:26:19;7.57;;;5.15;;
79438;SDS011;68889;48.232;10.110;2023-07-09T06:28:45;7.25;;;4.80;;
79438;SDS011;68889;48.232;10.110;2023-07-09T06:31:11;5.38;;;4.18;;
79438;SDS011;68889;48.232;10.110;2023-07-09T06:33:36;7.18;;;4.35;;
79438;SDS011;68889;48.232;10.110;2023-07-09T06:36:02;9.38;;;5.13;;
79438;SDS011;68889;48.232;10.110;2023-07-09T06:38:29;6.10;;;4.80;;
79438;SDS011;68889;48.232;10.110;2023-07-09T06:43:21;6.50;;;4.30;;
79438;SDS011;68889;48.232;10.110;2023-07-09T06:45:54;6.85;;;4.18;;
79438;SDS011;68889;48.232;10.110;2023-07-09T06:48:22;6.22;;;4.43;;
79438;SDS011;68889;48.232;10.110;2023-07-09T06:50:48;6.30;;;4.55;;
79438;SDS011;68889;48.232;10.110;2023-07-09T06:53:13;8.18;;;4.47;;
79438;SDS011;68889;48.232;10.110;2023-07-09T06:55:39;6.47;;;4.07;;
79438;SDS011;68889;48.232;10.110;2023-07-09T07:00:30;5.57;;;3.97;;
79438;SDS011;68889;48.232;10.110;2023-07-09T07:02:56;6.68;;;4.20;;
79438;SDS011;68889;48.232;10.110;2023-07-09T07:05:22;6.75;;;4.25;;
79438;SDS011;68889;48.232;10.110;2023-07-09T07:07:47;7.93;;;4.35;;
79438;SDS011;68889;48.232;10.110;2023-07-09T07:12:42;7.38;;;4.60;;
79438;SDS011;68889;48.232;10.110;2023-07-09T07:15:09;7.40;;;4.55;;
79438;SDS011;68889;48.232;10.110;2023-07-09T07:17:36;5.50;;;4.18;;
79438;SDS011;68889;48.232;10.110;2023-07-09T07:22:27;6.32;;;3.90;;
79438;SDS011;68889;48.232;10.110;2023-07-09T07:27:18;6.85;;;4.22;;
79438;SDS011;68889;48.232;10.110;2023-07-09T07:32:10;5.70;;;4.25;;
79438;SDS011;68889;48.232;10.110;2023-07-09T07:37:01;6.15;;;4.43;;
79438;SDS011;68889;48.232;10.110;2023-07-09T07:39:27;6.32;;;4.10;;
79438;SDS011;68889;48.232;10.110;2023-07-09T07:41:52;5.75;;;3.90;;
79438;SDS011;68889;48.232;10.110;2023-07-09T07:44:20;4.70;;;4.00;;
79438;SDS011;68889;48.232;10.110;2023-07-09T08:50:14;4.65;;;3.40;;
79438;SDS011;68889;48.232;10.110;2023-07-09T08:52:41;4.55;;;3.22;;
79438;SDS011;68889;48.232;10.110;2023-07-09T09:55:11;4.40;;;2.60;;
79438;SDS011;68889;48.232;10.110;2023-07-09T09:57:47;5.00;;;3.30;;
79438;SDS011;68889;48.232;10.110;2023-07-09T10:35:41;3.83;;;2.45;;
79438;SDS011;68889;48.232;10.110;2023-07-09T11:48:56;3.92;;;2.60;;
79438;SDS011;68889;48.232;10.110;2023-07-09T11:51:28;4.72;;;3.15;;
79438;SDS011;68889;48.232;10.110;2023-07-09T11:54:03;6.22;;;2.70;;
79438;SDS011;68889;48.232;10.110;2023-07-09T11:56:29;4.55;;;2.70;;
79438;SDS011;68889;48.232;10.110;2023-07-09T11:58:55;5.28;;;3.00;;
79438;SDS011;68889;48.232;10.110;2023-07-09T12:01:23;4.15;;;2.80;;
79438;SDS011;68889;48.232;10.110;2023-07-09T12:03:52;4.03;;;2.63;;
79438;SDS011;68889;48.232;10.110;2023-07-09T12:06:21;5.10;;;2.72;;
79438;SDS011;68889;48.232;10.110;2023-07-09T12:08:51;4.97;;;3.05;;
79438;SDS011;68889;48.232;10.110;2023-07-09T12:13:50;4.43;;;3.00;;
79438;SDS011;68889;48.232;10.110;2023-07-09T12:16:27;5.72;;;2.88;;
79438;SDS011;68889;48.232;10.110;2023-07-09T12:19:01;4.47;;;3.00;;
79438;SDS011;68889;48.232;10.110;2023-07-09T12:21:27;4.47;;;3.20;;
79438;SDS011;68889;48.232;10.110;2023-07-09T12:23:54;4.78;;;2.95;;
79438;SDS011;68889;48.232;10.110;2023-07-09T12:26:23;4.95;;;2.90;;
79438;SDS011;68889;48.232;10.110;2023-07-09T12:28:49;4.68;;;3.10;;
79438;SDS011;68889;48.232;10.110;2023-07-09T12:31:16;4.82;;;2.83;;
79438;SDS011;68889;48.232;10.110;2023-07-09T12:33:49;4.55;;;3.00;;
79438;SDS011;68889;48.232;10.110;2023-07-09T12:36:17;4.20;;;2.90;;
79438;SDS011;68889;48.232;10.110;2023-07-09T12:38:47;4.35;;;3.03;;
79438;SDS011;68889;48.232;10.110;2023-07-09T12:43:53;4.63;;;2.70;;
79438;SDS011;68889;48.232;10.110;2023-07-09T12:46:20;4.18;;;2.63;;
79438;SDS011;68889;48.232;10.110;2023-07-09T12:48:47;5.00;;;3.05;;
79438;SDS011;68889;48.232;10.110;2023-07-09T12:51:15;3.35;;;2.58;;
79438;SDS011;68889;48.232;10.110;2023-07-09T12:53:45;5.40;;;2.70;;
79438;SDS011;68889;48.232;10.110;2023-07-09T12:56:11;4.80;;;2.97;;
79438;SDS011;68889;48.232;10.110;2023-07-09T12:58:40;3.42;;;2.90;;
79438;SDS011;68889;48.232;10.110;2023-07-09T13:01:07;5.32;;;3.15;;
79438;SDS011;68889;48.232;10.110;2023-07-09T13:03:38;3.92;;;2.83;;
79438;SDS011;68889;48.232;10.110;2023-07-09T13:06:24;5.45;;;3.00;;
79438;SDS011;68889;48.232;10.110;2023-07-09T13:08:55;5.65;;;3.20;;
79438;SDS011;68889;48.232;10.110;2023-07-09T13:11:22;4.38;;;2.80;;
79438;SDS011;68889;48.232;10.110;2023-07-09T13:13:55;4.03;;;2.97;;
79438;SDS011;68889;48.232;10.110;2023-07-09T13:16:22;3.70;;;3.10;;
79438;SDS011;68889;48.232;10.110;2023-07-09T13:18:48;5.68;;;2.83;;
79438;SDS011;68889;48.232;10.110;2023-07-09T13:21:15;4.90;;;2.95;;
79438;SDS011;68889;48.232;10.110;2023-07-09T13:23:42;4.70;;;3.17;;
79438;SDS011;68889;48.232;10.110;2023-07-09T13:26:08;4.20;;;3.10;;
79438;SDS011;68889;48.232;10.110;2023-07-09T13:28:33;4.72;;;2.83;;
79438;SDS011;68889;48.232;10.110;2023-07-09T13:31:00;4.65;;;2.90;;
79438;SDS011;68889;48.232;10.110;2023-07-09T13:33:32;4.07;;;2.80;;
79438;SDS011;68889;48.232;10.110;2023-07-09T13:35:58;4.38;;;2.83;;
79438;SDS011;68889;48.232;10.110;2023-07-09T13:38:24;6.95;;;2.92;;
79438;SDS011;68889;48.232;10.110;2023-07-09T13:40:54;4.82;;;3.25;;
79438;SDS011;68889;48.232;10.110;2023-07-09T13:43:29;6.18;;;3.15;;
79438;SDS011;68889;48.232;10.110;2023-07-09T13:45:56;5.25;;;3.20;;
79438;SDS011;68889;48.232;10.110;2023-07-09T13:48:22;5.82;;;2.80;;
79438;SDS011;68889;48.232;10.110;2023-07-09T13:50:50;8.90;;;3.38;;
79438;SDS011;68889;48.232;10.110;2023-07-09T13:53:22;4.88;;;3.13;;
79438;SDS011;68889;48.232;10.110;2023-07-09T13:55:50;3.72;;;2.72;;
79438;SDS011;68889;48.232;10.110;2023-07-09T13:58:16;4.70;;;2.67;;
79438;SDS011;68889;48.232;10.110;2023-07-09T14:00:45;4.75;;;3.60;;
79438;SDS011;68889;48.232;10.110;2023-07-09T14:03:20;3.80;;;2.90;;
79438;SDS011;68889;48.232;10.110;2023-07-09T14:05:47;5.43;;;2.95;;
79438;SDS011;68889;48.232;10.110;2023-07-09T14:08:13;5.13;;;3.08;;
79438;SDS011;68889;48.232;10.110;2023-07-09T14:10:39;5.30;;;3.08;;
79438;SDS011;68889;48.232;10.110;2023-07-09T14:13:05;6.10;;;3.10;;
79438;SDS011;68889;48.232;10.110;2023-07-09T14:15:33;5.95;;;3.00;;
79438;SDS011;68889;48.232;10.110;2023-07-09T14:17:58;6.35;;;3.20;;
79438;SDS011;68889;48.232;10.110;2023-07-09T14:20:24;5.70;;;2.90;;
79438;SDS011;68889;48.232;10.110;2023-07-09T14:22:50;6.13;;;3.30;;
79438;SDS011;68889;48.232;10.110;2023-07-09T14:25:23;5.32;;;3.25;;
79438;SDS011;68889;48.232;10.110;2023-07-09T14:27:50;4.80;;;3.10;;
79438;SDS011;68889;48.232;10.110;2023-07-09T14:30:18;6.65;;;3.25;;
79438;SDS011;68889;48.232;10.110;2023-07-09T14:32:46;4.35;;;3.00;;
79438;SDS011;68889;48.232;10.110;2023-07-09T14:35:15;4.43;;;3.40;;
79438;SDS011;68889;48.232;10.110;2023-07-09T14:37:41;4.80;;;3.30;;
79438;SDS011;68889;48.232;10.110;2023-07-09T14:40:07;4.85;;;2.67;;
79438;SDS011;68889;48.232;10.110;2023-07-09T14:42:34;5.03;;;3.10;;
79438;SDS011;68889;48.232;10.110;2023-07-09T14:45:00;6.88;;;3.60;;
79438;SDS011;68889;48.232;10.110;2023-07-09T14:47:27;5.53;;;2.83;;
79438;SDS011;68889;48.232;10.110;2023-07-09T14:49:53;4.65;;;2.60;;
79438;SDS011;68889;48.232;10.110;2023-07-09T14:52:19;5.47;;;3.05;;
79438;SDS011;68889;48.232;10.110;2023-07-09T14:54:47;5.63;;;3.10;;
79438;SDS011;68889;48.232;10.110;2023-07-09T14:57:24;5.55;;;3.00;;
79438;SDS011;68889;48.232;10.110;2023-07-09T14:59:51;4.65;;;3.30;;
79438;SDS011;68889;48.232;10.110;2023-07-09T15:02:34;4.93;;;2.70;;
79438;SDS011;68889;48.232;10.110;2023-07-09T15:05:01;5.72;;;3.33;;
79438;SDS011;68889;48.232;10.110;2023-07-09T15:07:28;5.50;;;2.70;;
79438;SDS011;68889;48.232;10.110;2023-07-09T15:09:59;5.25;;;3.10;;
79438;SDS011;68889;48.232;10.110;2023-07-09T15:12:30;4.95;;;3.17;;
79438;SDS011;68889;48.232;10.110;2023-07-09T15:17:26;5.45;;;2.83;;
79438;SDS011;68889;48.232;10.110;2023-07-09T15:19:51;5.80;;;3.08;;
79438;SDS011;68889;48.232;10.110;2023-07-09T15:22:19;6.50;;;3.10;;
79438;SDS011;68889;48.232;10.110;2023-07-09T15:24:54;4.95;;;2.88;;
79438;SDS011;68889;48.232;10.110;2023-07-09T15:27:20;5.95;;;3.05;;
79438;SDS011;68889;48.232;10.110;2023-07-09T15:29:45;4.75;;;3.20;;
79438;SDS011;68889;48.232;10.110;2023-07-09T15:32:11;3.65;;;2.78;;
79438;SDS011;68889;48.232;10.110;2023-07-09T15:34:37;4.53;;;3.00;;
79438;SDS011;68889;48.232;10.110;2023-07-09T15:37:04;5.25;;;3.10;;
79438;SDS011;68889;48.232;10.110;2023-07-09T15:39:39;6.25;;;3.10;;
79438;SDS011;68889;48.232;10.110;2023-07-09T15:42:12;6.20;;;3.05;;
79438;SDS011;68889;48.232;10.110;2023-07-09T15:44:39;3.97;;;3.10;;
79438;SDS011;68889;48.232;10.110;2023-07-09T15:47:05;4.32;;;2.92;;
79438;SDS011;68889;48.232;10.110;2023-07-09T15:49:38;4.90;;;2.97;;
79438;SDS011;68889;48.232;10.110;2023-07-09T15:52:05;4.97;;;2.63;;
79438;SDS011;68889;48.232;10.110;2023-07-09T15:54:32;9.30;;;3.30;;
79438;SDS011;68889;48.232;10.110;2023-07-09T15:56:58;5.13;;;2.80;;
79438;SDS011;68889;48.232;10.110;2023-07-09T15:59:24;5.85;;;2.95;;
79438;SDS011;68889;48.232;10.110;2023-07-09T16:01:56;6.50;;;3.00;;
79438;SDS011;68889;48.232;10.110;2023-07-09T16:04:22;4.88;;;3.10;;
79438;SDS011;68889;48.232;10.110;2023-07-09T16:06:48;5.70;;;2.88;;
79438;SDS011;68889;48.232;10.110;2023-07-09T16:09:14;5.07;;;3.10;;
79438;SDS011;68889;48.232;10.110;2023-07-09T16:11:41;5.70;;;2.97;;
79438;SDS011;68889;48.232;10.110;2023-07-09T16:14:15;4.75;;;3.05;;
79438;SDS011;68889;48.232;10.110;2023-07-09T16:16:51;6.00;;;3.47;;
79438;SDS011;68889;48.232;10.110;2023-07-09T16:19:19;5.32;;;2.90;;
79438;SDS011;68889;48.232;10.110;2023-07-09T16:21:46;5.15;;;2.92;;
79438;SDS011;68889;48.232;10.110;2023-07-09T16:24:21;4.45;;;2.80;;
79438;SDS011;68889;48.232;10.110;2023-07-09T16:26:54;4.32;;;3.08;;
79438;SDS011;68889;48.232;10.110;2023-07-09T16:29:24;5.10;;;2.97;;
79438;SDS011;68889;48.232;10.110;2023-07-09T16:31:53;4.60;;;2.90;;
79438;SDS011;68889;48.232;10.110;2023-07-09T16:34:20;4.78;;;3.00;;
79438;SDS011;68889;48.232;10.110;2023-07-09T16:36:47;4.45;;;3.03;;
79438;SDS011;68889;48.232;10.110;2023-07-09T16:39:20;4.93;;;3.00;;
79438;SDS011;68889;48.232;10.110;2023-07-09T16:41:49;4.38;;;2.85;;
79438;SDS011;68889;48.232;10.110;2023-07-09T16:44:15;6.25;;;2.92;;
79438;SDS011;68889;48.232;10.110;2023-07-09T16:46:41;4.15;;;3.00;;
79438;SDS011;68889;48.232;10.110;2023-07-09T16:51:50;4.53;;;3.08;;
79438;SDS011;68889;48.232;10.110;2023-07-09T16:54:16;5.28;;;3.00;;
79438;SDS011;68889;48.232;10.110;2023-07-09T16:56:42;4.53;;;2.70;;
79438;SDS011;68889;48.232;10.110;2023-07-09T16:59:10;7.80;;;3.25;;
79438;SDS011;68889;48.232;10.110;2023-07-09T17:01:36;4.45;;;3.00;;
79438;SDS011;68889;48.232;10.110;2023-07-09T17:06:46;4.75;;;2.90;;
79438;SDS011;68889;48.232;10.110;2023-07-09T17:09:11;4.93;;;3.03;;
79438;SDS011;68889;48.232;10.110;2023-07-09T17:11:37;4.88;;;3.00;;
79438;SDS011;68889;48.232;10.110;2023-07-09T17:14:03;5.00;;;3.35;;
79438;SDS011;68889;48.232;10.110;2023-07-09T17:16:29;4.20;;;2.90;;
79438;SDS011;68889;48.232;10.110;2023-07-09T17:18:55;5.28;;;2.78;;
79438;SDS011;68889;48.232;10.110;2023-07-09T17:21:20;5.80;;;3.45;;
79438;SDS011;68889;48.232;10.110;2023-07-09T17:23:46;4.03;;;2.90;;
79438;SDS011;68889;48.232;10.110;2023-07-09T17:26:11;4.35;;;3.00;;
79438;SDS011;68889;48.232;10.110;2023-07-09T17:28:37;4.70;;;3.05;;
79438;SDS011;68889;48.232;10.110;2023-07-09T17:31:02;5.70;;;2.97;;
79438;SDS011;68889;48.232;10.110;2023-07-09T17:33:28;6.30;;;3.55;;
79438;SDS011;68889;48.232;10.110;2023-07-09T17:35:55;5.45;;;2.97;;
79438;SDS011;68889;48.232;10.110;2023-07-09T17:38:23;5.80;;;3.28;;
79438;SDS011;68889;48.232;10.110;2023-07-09T17:40:56;4.95;;;2.88;;
79438;SDS011;68889;48.232;10.110;2023-07-09T17:43:23;4.43;;;3.08;;
79438;SDS011;68889;48.232;10.110;2023-07-09T17:45:49;5.07;;;4.57;;
79438;SDS011;68889;48.232;10.110;2023-07-09T17:48:37;4.97;;;3.10;;
79438;SDS011;68889;48.232;10.110;2023-07-09T17:51:02;6.30;;;3.70;;
79438;SDS011;68889;48.232;10.110;2023-07-09T17:53:30;5.53;;;3.58;;
79438;SDS011;68889;48.232;10.110;2023-07-09T17:55:57;6.05;;;3.20;;
79438;SDS011;68889;48.232;10.110;2023-07-09T17:58:24;5.85;;;3.65;;
79438;SDS011;68889;48.232;10.110;2023-07-09T18:01:00;7.85;;;3.40;;
79438;SDS011;68889;48.232;10.110;2023-07-09T18:03:27;4.50;;;3.28;;
79438;SDS011;68889;48.232;10.110;2023-07-09T18:05:53;6.22;;;4.40;;
79438;SDS011;68889;48.232;10.110;2023-07-09T18:08:19;5.22;;;4.20;;
79438;SDS011;68889;48.232;10.110;2023-07-09T18:10:44;4.07;;;2.63;;
79438;SDS011;68889;48.232;10.110;2023-07-09T18:13:21;6.40;;;3.47;;
79438;SDS011;68889;48.232;10.110;2023-07-09T18:18:15;7.65;;;5.60;;
79438;SDS011;68889;48.232;10.110;2023-07-09T18:20:42;5.03;;;2.90;;
79438;SDS011;68889;48.232;10.110;2023-07-09T18:23:08;5.07;;;2.83;;
79438;SDS011;68889;48.232;10.110;2023-07-09T18:25:34;5.45;;;3.42;;
79438;SDS011;68889;48.232;10.110;2023-07-09T18:28:10;8.85;;;6.93;;
79438;SDS011;68889;48.232;10.110;2023-07-09T18:30:43;6.85;;;3.90;;
79438;SDS011;68889;48.232;10.110;2023-07-09T18:33:09;5.93;;;3.40;;
79438;SDS011;68889;48.232;10.110;2023-07-09T18:35:36;7.07;;;4.30;;
79438;SDS011;68889;48.232;10.110;2023-07-09T18:38:03;4.93;;;3.50;;
79438;SDS011;68889;48.232;10.110;2023-07-09T18:40:32;5.68;;;3.53;;
79438;SDS011;68889;48.232;10.110;2023-07-09T18:43:04;8.15;;;4.18;;
79438;SDS011;68889;48.232;10.110;2023-07-09T18:45:34;7.32;;;3.80;;
79438;SDS011;68889;48.232;10.110;2023-07-09T18:48:00;6.35;;;3.45;;
79438;SDS011;68889;48.232;10.110;2023-07-09T18:52:54;5.85;;;3.22;;
79438;SDS011;68889;48.232;10.110;2023-07-09T18:55:22;4.72;;;2.97;;
79438;SDS011;68889;48.232;10.110;2023-07-09T18:57:51;5.85;;;2.92;;
79438;SDS011;68889;48.232;10.110;2023-07-09T19:00:18;6.45;;;2.97;;
79438;SDS011;68889;48.232;10.110;2023-07-09T19:02:44;4.72;;;2.65;;
79438;SDS011;68889;48.232;10.110;2023-07-09T19:05:15;8.25;;;3.80;;
79438;SDS011;68889;48.232;10.110;2023-07-09T19:07:44;5.68;;;3.53;;
79438;SDS011;68889;48.232;10.110;2023-07-09T19:10:13;5.63;;;3.40;;